createdAt,value
2018-08-28T00:00:04.011Z,4.38
2018-08-28T00:00:16.447Z,4.38
2018-08-28T00:00:28.897Z,4.38
2018-08-28T00:00:41.314Z,4.38
2018-08-28T00:00:53.738Z,4.38
2018-08-28T00:01:06.301Z,4.38
2018-08-28T00:01:18.713Z,4.38
2018-08-28T00:01:31.159Z,4.38
2018-08-28T00:01:43.571Z,4.38
2018-08-28T00:01:55.995Z,4.38
2018-08-28T00:02:08.406Z,4.38
2018-08-28T00:02:20.812Z,4.38
2018-08-28T00:02:33.228Z,4.38
2018-08-28T00:02:45.719Z,4.38
2018-08-28T00:02:58.146Z,4.38
2018-08-28T00:03:10.558Z,4.38
2018-08-28T00:03:22.987Z,4.38
2018-08-28T00:03:35.432Z,4.38
2018-08-28T00:03:48.024Z,4.38
2018-08-28T00:04:00.472Z,4.38
2018-08-28T00:04:12.908Z,4.38
2018-08-28T00:04:25.351Z,4.38
2018-08-28T00:04:37.787Z,4.38
2018-08-28T00:04:50.223Z,4.38
2018-08-28T00:05:02.648Z,4.38
2018-08-28T00:05:15.064Z,4.38
2018-08-28T00:05:27.665Z,4.38
2018-08-28T00:05:40.079Z,4.38
2018-08-28T00:05:52.497Z,4.38
2018-08-28T00:06:04.941Z,4.38
2018-08-28T00:06:17.368Z,4.38
2018-08-28T00:06:29.790Z,4.21
2018-08-28T00:06:42.180Z,4.21
2018-08-28T00:06:54.767Z,4.21
2018-08-28T00:07:07.185Z,4.21
2018-08-28T00:07:19.603Z,4.21
2018-08-28T00:07:32.020Z,4.21
2018-08-28T00:07:44.440Z,4.21
2018-08-28T00:07:56.848Z,4.21
2018-08-28T00:08:09.693Z,4.21
2018-08-28T00:08:22.096Z,4.21
2018-08-28T00:08:34.500Z,4.21
2018-08-28T00:08:46.923Z,4.21
2018-08-28T00:08:59.356Z,4.21
2018-08-28T00:09:11.796Z,4.21
2018-08-28T00:09:24.223Z,4.21
2018-08-28T00:09:36.644Z,4.21
2018-08-28T00:09:49.146Z,4.21
2018-08-28T00:10:01.596Z,4.21
2018-08-28T00:10:14.011Z,4.21
2018-08-28T00:10:26.420Z,4.21
2018-08-28T00:10:38.837Z,4.21
2018-08-28T00:10:51.279Z,4.21
2018-08-28T00:11:03.690Z,4.21
2018-08-28T00:11:16.101Z,4.21
2018-08-28T00:11:28.513Z,4.21
2018-08-28T00:11:40.946Z,4.21
2018-08-28T00:11:53.413Z,4.21
2018-08-28T00:12:05.818Z,4.21
2018-08-28T00:12:18.283Z,4.21
2018-08-28T00:12:30.687Z,4.21
2018-08-28T00:12:43.112Z,4.21
2018-08-28T00:12:55.562Z,4.21
2018-08-28T00:13:08.017Z,4.21
2018-08-28T00:13:20.427Z,4.21
2018-08-28T00:13:32.881Z,4.21
2018-08-28T00:13:45.312Z,4.21
2018-08-28T00:13:57.702Z,4.21
2018-08-28T00:14:10.119Z,4.21
2018-08-28T00:14:22.557Z,4.21
2018-08-28T00:14:34.979Z,4.21
2018-08-28T00:14:47.375Z,4.21
2018-08-28T00:14:59.779Z,4.21
2018-08-28T00:15:12.222Z,4.21
2018-08-28T00:15:24.627Z,4.21
2018-08-28T00:15:37.033Z,4.21
2018-08-28T00:15:49.440Z,4.21
2018-08-28T00:16:01.868Z,4.21
2018-08-28T00:16:14.280Z,4.21
2018-08-28T00:16:26.690Z,4.52
2018-08-28T00:16:39.095Z,4.52
2018-08-28T00:16:51.517Z,4.52
2018-08-28T00:17:04.794Z,4.52
2018-08-28T00:17:18.196Z,4.52
2018-08-28T00:17:30.685Z,4.52
2018-08-28T00:17:43.111Z,4.52
2018-08-28T00:17:55.506Z,4.52
2018-08-28T00:18:08.049Z,4.52
2018-08-28T00:18:20.480Z,4.52
2018-08-28T00:18:32.919Z,4.52
2018-08-28T00:18:45.389Z,4.52
2018-08-28T00:18:57.983Z,4.52
2018-08-28T00:19:10.459Z,4.52
2018-08-28T00:19:22.872Z,4.52
2018-08-28T00:19:35.338Z,4.52
2018-08-28T00:19:47.761Z,4.52
2018-08-28T00:20:00.165Z,4.52
2018-08-28T00:20:12.591Z,4.52
2018-08-28T00:20:25.036Z,4.52
2018-08-28T00:20:37.463Z,4.52
2018-08-28T00:20:49.854Z,4.52
2018-08-28T00:21:02.280Z,4.52
2018-08-28T00:21:14.706Z,4.52
2018-08-28T00:21:27.133Z,4.52
2018-08-28T00:21:39.557Z,4.52
2018-08-28T00:21:51.975Z,4.52
2018-08-28T00:22:04.390Z,4.52
2018-08-28T00:22:16.835Z,4.52
2018-08-28T00:22:29.260Z,4.52
2018-08-28T00:22:41.803Z,4.52
2018-08-28T00:22:54.210Z,4.52
2018-08-28T00:23:06.652Z,4.52
2018-08-28T00:23:19.076Z,4.52
2018-08-28T00:23:31.498Z,4.52
2018-08-28T00:23:43.922Z,4.52
2018-08-28T00:23:56.367Z,4.52
2018-08-28T00:24:08.774Z,4.52
2018-08-28T00:24:21.212Z,4.52
2018-08-28T00:24:33.626Z,4.52
2018-08-28T00:24:46.040Z,4.52
2018-08-28T00:24:58.452Z,4.52
2018-08-28T00:25:10.885Z,4.52
2018-08-28T00:25:23.456Z,4.52
2018-08-28T00:25:36.025Z,4.52
2018-08-28T00:25:48.500Z,4.52
2018-08-28T00:26:00.903Z,4.52
2018-08-28T00:26:13.331Z,4.52
2018-08-28T00:26:25.748Z,5.05
2018-08-28T00:26:38.147Z,5.05
2018-08-28T00:26:50.580Z,5.05
2018-08-28T00:27:03.018Z,5.05
2018-08-28T00:27:15.426Z,5.05
2018-08-28T00:27:27.863Z,5.05
2018-08-28T00:27:40.601Z,5.05
2018-08-28T00:27:53.385Z,5.05
2018-08-28T00:28:06.368Z,5.05
2018-08-28T00:28:19.172Z,5.05
2018-08-28T00:28:32.157Z,5.05
2018-08-28T00:28:44.938Z,5.05
2018-08-28T00:28:57.732Z,5.05
2018-08-28T00:29:10.527Z,5.05
2018-08-28T00:29:23.335Z,5.05
2018-08-28T00:29:36.127Z,5.05
2018-08-28T00:29:48.916Z,5.05
2018-08-28T00:30:01.740Z,5.05
2018-08-28T00:30:14.716Z,5.05
2018-08-28T00:30:27.517Z,5.05
2018-08-28T00:30:40.318Z,5.05
2018-08-28T00:30:53.107Z,5.05
2018-08-28T00:31:05.935Z,5.05
2018-08-28T00:31:18.715Z,5.05
2018-08-28T00:31:31.518Z,5.05
2018-08-28T00:31:44.307Z,5.05
2018-08-28T00:31:57.097Z,5.05
2018-08-28T00:32:09.937Z,5.05
2018-08-28T00:32:22.720Z,5.05
2018-08-28T00:32:35.734Z,5.05
2018-08-28T00:32:48.521Z,5.05
2018-08-28T00:33:01.335Z,5.05
2018-08-28T00:33:14.122Z,5.05
2018-08-28T00:33:26.915Z,5.05
2018-08-28T00:33:39.758Z,5.05
2018-08-28T00:33:52.560Z,5.05
2018-08-28T00:34:05.376Z,5.05
2018-08-28T00:34:18.347Z,5.05
2018-08-28T00:34:31.136Z,5.05
2018-08-28T00:34:43.913Z,5.05
2018-08-28T00:34:56.783Z,5.05
2018-08-28T00:35:09.561Z,5.05
2018-08-28T00:35:22.390Z,5.05
2018-08-28T00:35:35.166Z,5.05
2018-08-28T00:35:48.010Z,5.05
2018-08-28T00:36:00.859Z,5.05
2018-08-28T00:36:13.648Z,5.05
2018-08-28T00:36:26.440Z,5.25
2018-08-28T00:36:39.210Z,5.25
2018-08-28T00:36:52.035Z,5.25
2018-08-28T00:37:04.894Z,5.25
2018-08-28T00:37:17.685Z,5.25
2018-08-28T00:37:30.463Z,5.25
2018-08-28T00:37:43.407Z,5.25
2018-08-28T00:37:56.198Z,5.25
2018-08-28T00:38:09.003Z,5.25
2018-08-28T00:38:21.822Z,5.25
2018-08-28T00:38:34.597Z,5.25
2018-08-28T00:38:47.394Z,5.25
2018-08-28T00:39:00.208Z,5.25
2018-08-28T00:39:13.026Z,5.25
2018-08-28T00:39:25.867Z,5.25
2018-08-28T00:39:38.646Z,5.25
2018-08-28T00:39:51.423Z,5.25
2018-08-28T00:40:04.202Z,5.25
2018-08-28T00:40:16.996Z,5.25
2018-08-28T00:40:29.792Z,5.25
2018-08-28T00:40:42.581Z,5.25
2018-08-28T00:40:55.423Z,5.25
2018-08-28T00:41:08.240Z,5.25
2018-08-28T00:41:21.023Z,5.25
2018-08-28T00:41:33.865Z,5.25
2018-08-28T00:41:46.706Z,5.25
2018-08-28T00:41:59.494Z,5.25
2018-08-28T00:42:12.285Z,5.25
2018-08-28T00:42:25.071Z,5.25
2018-08-28T00:42:38.010Z,5.25
2018-08-28T00:42:50.848Z,5.25
2018-08-28T00:43:03.660Z,5.25
2018-08-28T00:43:16.448Z,5.25
2018-08-28T00:43:29.234Z,5.25
2018-08-28T00:43:42.022Z,5.25
2018-08-28T00:43:54.820Z,5.25
2018-08-28T00:44:07.670Z,5.25
2018-08-28T00:44:20.654Z,5.25
2018-08-28T00:44:33.439Z,5.25
2018-08-28T00:44:46.224Z,5.25
2018-08-28T00:44:59.011Z,5.25
2018-08-28T00:45:11.802Z,5.25
2018-08-28T00:45:24.585Z,5.25
2018-08-28T00:45:37.366Z,5.25
2018-08-28T00:45:50.401Z,5.25
2018-08-28T00:46:03.191Z,5.25
2018-08-28T00:46:16.006Z,5.25
2018-08-28T00:46:28.797Z,4.77
2018-08-28T00:46:41.965Z,4.77
2018-08-28T00:46:54.754Z,4.77
2018-08-28T00:47:07.621Z,4.77
2018-08-28T00:47:20.407Z,4.77
2018-08-28T00:47:33.204Z,4.77
2018-08-28T00:47:46.014Z,4.77
2018-08-28T00:47:58.798Z,4.77
2018-08-28T00:48:11.602Z,4.77
2018-08-28T00:48:24.400Z,4.77
2018-08-28T00:48:37.181Z,4.77
2018-08-28T00:48:49.957Z,4.77
2018-08-28T00:49:02.731Z,4.77
2018-08-28T00:49:15.730Z,4.77
2018-08-28T00:49:28.512Z,4.77
2018-08-28T00:49:41.298Z,4.77
2018-08-28T00:49:54.104Z,4.77
2018-08-28T00:50:06.984Z,4.77
2018-08-28T00:50:19.790Z,4.77
2018-08-28T00:50:32.578Z,4.77
2018-08-28T00:50:45.362Z,4.77
2018-08-28T00:50:58.168Z,4.77
2018-08-28T00:51:10.956Z,4.77
2018-08-28T00:51:23.753Z,4.77
2018-08-28T00:51:36.586Z,4.77
2018-08-28T00:51:49.352Z,4.77
2018-08-28T00:52:02.156Z,4.77
2018-08-28T00:52:15.060Z,4.77
2018-08-28T00:52:29.003Z,4.77
2018-08-28T00:52:42.202Z,4.77
2018-08-28T00:52:55.015Z,4.77
2018-08-28T00:53:07.814Z,4.77
2018-08-28T00:53:20.626Z,4.77
2018-08-28T00:53:33.414Z,4.77
2018-08-28T00:53:46.399Z,4.77
2018-08-28T00:53:59.231Z,4.77
2018-08-28T00:54:12.020Z,4.77
2018-08-28T00:54:24.799Z,4.77
2018-08-28T00:54:37.599Z,4.77
2018-08-28T00:54:50.380Z,4.77
2018-08-28T00:55:03.183Z,4.77
2018-08-28T00:55:15.986Z,4.77
2018-08-28T00:55:28.787Z,4.77
2018-08-28T00:55:41.572Z,4.77
2018-08-28T00:55:54.371Z,4.77
2018-08-28T00:56:07.152Z,4.77
2018-08-28T00:56:20.131Z,4.77
2018-08-28T00:56:32.928Z,4.79
2018-08-28T00:56:45.707Z,4.79
2018-08-28T00:56:58.717Z,4.79
2018-08-28T00:57:11.509Z,4.79
2018-08-28T00:57:24.298Z,4.79
2018-08-28T00:57:37.151Z,4.79
2018-08-28T00:57:49.954Z,4.79
2018-08-28T00:58:02.763Z,4.79
2018-08-28T00:58:15.557Z,4.79
2018-08-28T00:58:28.351Z,4.79
2018-08-28T00:58:41.399Z,4.79
2018-08-28T00:58:54.335Z,4.79
2018-08-28T00:59:07.145Z,4.79
2018-08-28T00:59:19.927Z,4.79
2018-08-28T00:59:32.722Z,4.79
2018-08-28T00:59:45.520Z,4.79
2018-08-28T00:59:58.320Z,4.79
2018-08-28T01:00:11.157Z,4.79
2018-08-28T01:00:23.980Z,4.79
2018-08-28T01:00:36.792Z,4.79
2018-08-28T01:00:49.603Z,4.79
2018-08-28T01:01:02.411Z,4.79
2018-08-28T01:01:15.351Z,4.79
2018-08-28T01:01:28.142Z,4.79
2018-08-28T01:01:40.947Z,4.79
2018-08-28T01:01:53.762Z,4.79
2018-08-28T01:02:06.551Z,4.79
2018-08-28T01:02:19.350Z,4.79
2018-08-28T01:02:32.139Z,4.79
2018-08-28T01:02:45.165Z,4.79
2018-08-28T01:02:57.960Z,4.79
2018-08-28T01:03:10.758Z,4.79
2018-08-28T01:03:23.559Z,4.79
2018-08-28T01:03:36.344Z,4.79
2018-08-28T01:03:49.241Z,4.79
2018-08-28T01:04:02.045Z,4.79
2018-08-28T01:04:14.853Z,4.79
2018-08-28T01:04:27.660Z,4.79
2018-08-28T01:04:40.458Z,4.79
2018-08-28T01:04:53.246Z,4.79
2018-08-28T01:05:06.041Z,4.79
2018-08-28T01:05:18.839Z,4.79
2018-08-28T01:05:31.834Z,4.79
2018-08-28T01:05:44.642Z,4.79
2018-08-28T01:05:57.451Z,4.79
2018-08-28T01:06:10.256Z,4.79
2018-08-28T01:06:23.073Z,4.79
2018-08-28T01:06:35.878Z,5.31
2018-08-28T01:06:48.701Z,5.31
2018-08-28T01:07:01.500Z,5.31
2018-08-28T01:07:14.317Z,5.31
2018-08-28T01:07:27.139Z,5.31
2018-08-28T01:07:39.960Z,5.31
2018-08-28T01:07:52.732Z,5.31
2018-08-28T01:08:05.737Z,5.31
2018-08-28T01:08:18.552Z,5.31
2018-08-28T01:08:31.337Z,5.31
2018-08-28T01:08:44.141Z,5.31
2018-08-28T01:08:56.962Z,5.31
2018-08-28T01:09:09.793Z,5.31
2018-08-28T01:09:22.596Z,5.31
2018-08-28T01:09:35.401Z,5.31
2018-08-28T01:09:48.190Z,5.31
2018-08-28T01:10:01.003Z,5.31
2018-08-28T01:10:13.789Z,5.31
2018-08-28T01:10:26.620Z,5.31
2018-08-28T01:10:39.424Z,5.31
2018-08-28T01:10:52.250Z,5.31
2018-08-28T01:11:05.089Z,5.31
2018-08-28T01:11:17.890Z,5.31
2018-08-28T01:11:30.728Z,5.31
2018-08-28T01:11:43.533Z,5.31
2018-08-28T01:11:56.335Z,5.31
2018-08-28T01:12:09.126Z,5.31
2018-08-28T01:12:21.935Z,5.31
2018-08-28T01:12:34.734Z,5.31
2018-08-28T01:12:47.530Z,5.31
2018-08-28T01:13:00.398Z,5.31
2018-08-28T01:13:13.206Z,5.31
2018-08-28T01:13:26.024Z,5.31
2018-08-28T01:13:38.819Z,5.31
2018-08-28T01:13:51.633Z,5.31
2018-08-28T01:14:04.447Z,5.31
2018-08-28T01:14:17.257Z,5.31
2018-08-28T01:14:30.239Z,5.31
2018-08-28T01:14:43.827Z,5.31
2018-08-28T01:14:57.480Z,5.31
2018-08-28T01:15:10.302Z,5.31
2018-08-28T01:15:23.126Z,5.31
2018-08-28T01:15:35.921Z,5.31
2018-08-28T01:15:48.733Z,5.31
2018-08-28T01:16:01.524Z,5.31
2018-08-28T01:16:14.321Z,5.31
2018-08-28T01:16:27.138Z,4.83
2018-08-28T01:16:39.942Z,4.83
2018-08-28T01:16:52.740Z,4.83
2018-08-28T01:17:05.576Z,4.83
2018-08-28T01:17:18.443Z,4.83
2018-08-28T01:17:31.252Z,4.83
2018-08-28T01:17:44.049Z,4.83
2018-08-28T01:17:56.824Z,4.83
2018-08-28T01:18:10.055Z,4.83
2018-08-28T01:18:22.841Z,4.83
2018-08-28T01:18:35.638Z,4.83
2018-08-28T01:18:48.454Z,4.83
2018-08-28T01:19:01.376Z,4.83
2018-08-28T01:19:14.197Z,4.83
2018-08-28T01:19:27.014Z,4.83
2018-08-28T01:19:39.797Z,4.83
2018-08-28T01:19:52.602Z,4.83
2018-08-28T01:20:05.394Z,4.83
2018-08-28T01:20:18.194Z,4.83
2018-08-28T01:20:30.989Z,4.83
2018-08-28T01:20:43.800Z,4.83
2018-08-28T01:20:56.592Z,4.83
2018-08-28T01:21:09.406Z,4.83
2018-08-28T01:21:22.213Z,4.83
2018-08-28T01:21:34.996Z,4.83
2018-08-28T01:21:47.831Z,4.83
2018-08-28T01:22:00.636Z,4.83
2018-08-28T01:22:13.493Z,4.83
2018-08-28T01:22:26.280Z,4.83
2018-08-28T01:22:39.142Z,4.83
2018-08-28T01:22:51.944Z,4.83
2018-08-28T01:23:04.763Z,4.83
2018-08-28T01:23:17.553Z,4.83
2018-08-28T01:23:30.396Z,4.83
2018-08-28T01:23:43.192Z,4.83
2018-08-28T01:23:56.007Z,4.83
2018-08-28T01:24:08.817Z,4.83
2018-08-28T01:24:21.618Z,4.83
2018-08-28T01:24:34.425Z,4.83
2018-08-28T01:24:47.225Z,4.83
2018-08-28T01:24:59.995Z,4.83
2018-08-28T01:25:12.804Z,4.83
2018-08-28T01:25:25.866Z,4.83
2018-08-28T01:25:38.674Z,4.83
2018-08-28T01:25:51.463Z,4.83
2018-08-28T01:26:04.268Z,4.83
2018-08-28T01:26:17.075Z,4.83
2018-08-28T01:26:29.868Z,5.38
2018-08-28T01:26:43.081Z,5.38
2018-08-28T01:26:55.882Z,5.38
2018-08-28T01:27:08.707Z,5.38
2018-08-28T01:27:21.520Z,5.38
2018-08-28T01:27:34.361Z,5.38
2018-08-28T01:27:47.143Z,5.38
2018-08-28T01:27:59.990Z,5.38
2018-08-28T01:28:12.784Z,5.38
2018-08-28T01:28:25.805Z,5.38
2018-08-28T01:28:38.592Z,5.38
2018-08-28T01:28:51.380Z,5.38
2018-08-28T01:29:04.170Z,5.38
2018-08-28T01:29:16.959Z,5.38
2018-08-28T01:29:29.741Z,5.38
2018-08-28T01:29:42.530Z,5.38
2018-08-28T01:29:55.317Z,5.38
2018-08-28T01:30:08.089Z,5.38
2018-08-28T01:30:21.055Z,5.38
2018-08-28T01:30:33.856Z,5.38
2018-08-28T01:30:46.660Z,5.38
2018-08-28T01:30:59.443Z,5.38
2018-08-28T01:31:12.253Z,5.38
2018-08-28T01:31:25.046Z,5.38
2018-08-28T01:31:37.874Z,5.38
2018-08-28T01:31:50.713Z,5.38
2018-08-28T01:32:03.694Z,5.38
2018-08-28T01:32:16.480Z,5.38
2018-08-28T01:32:29.273Z,5.38
2018-08-28T01:32:42.312Z,5.38
2018-08-28T01:32:55.142Z,5.38
2018-08-28T01:33:07.945Z,5.38
2018-08-28T01:33:20.783Z,5.38
2018-08-28T01:33:33.596Z,5.38
2018-08-28T01:33:46.404Z,5.38
2018-08-28T01:33:59.186Z,5.38
2018-08-28T01:34:12.198Z,5.38
2018-08-28T01:34:24.988Z,5.38
2018-08-28T01:34:37.772Z,5.38
2018-08-28T01:34:50.567Z,5.38
2018-08-28T01:35:03.606Z,5.38
2018-08-28T01:35:16.398Z,5.38
2018-08-28T01:35:29.203Z,5.38
2018-08-28T01:35:41.998Z,5.38
2018-08-28T01:35:54.799Z,5.38
2018-08-28T01:36:07.639Z,5.38
2018-08-28T01:36:20.442Z,5.38
2018-08-28T01:36:33.241Z,4.73
2018-08-28T01:36:46.030Z,4.73
2018-08-28T01:36:59.019Z,4.73
2018-08-28T01:37:12.232Z,4.73
2018-08-28T01:37:25.201Z,4.73
2018-08-28T01:37:38.013Z,4.73
2018-08-28T01:37:50.814Z,4.73
2018-08-28T01:38:03.613Z,4.73
2018-08-28T01:38:16.415Z,4.73
2018-08-28T01:38:29.203Z,4.73
2018-08-28T01:38:41.987Z,4.73
2018-08-28T01:38:54.788Z,4.73
2018-08-28T01:39:07.582Z,4.73
2018-08-28T01:39:20.355Z,4.73
2018-08-28T01:39:33.216Z,4.73
2018-08-28T01:39:45.999Z,4.73
2018-08-28T01:39:58.783Z,4.73
2018-08-28T01:40:11.596Z,4.73
2018-08-28T01:40:24.395Z,4.73
2018-08-28T01:40:37.205Z,4.73
2018-08-28T01:40:50.015Z,4.73
2018-08-28T01:41:02.824Z,4.73
2018-08-28T01:41:15.642Z,4.73
2018-08-28T01:41:28.439Z,4.73
2018-08-28T01:41:41.256Z,4.73
2018-08-28T01:41:54.051Z,4.73
2018-08-28T01:42:06.845Z,4.73
2018-08-28T01:42:19.637Z,4.73
2018-08-28T01:42:32.417Z,4.73
2018-08-28T01:42:45.222Z,4.73
2018-08-28T01:42:58.016Z,4.73
2018-08-28T01:43:10.798Z,4.73
2018-08-28T01:43:23.603Z,4.73
2018-08-28T01:43:36.398Z,4.73
2018-08-28T01:43:49.208Z,4.73
2018-08-28T01:44:02.010Z,4.73
2018-08-28T01:44:14.828Z,4.73
2018-08-28T01:44:27.623Z,4.73
2018-08-28T01:44:40.485Z,4.73
2018-08-28T01:44:53.010Z,4.73
2018-08-28T01:45:05.433Z,4.73
2018-08-28T01:45:17.900Z,4.73
2018-08-28T01:45:30.314Z,4.73
2018-08-28T01:45:42.741Z,4.73
2018-08-28T01:45:55.315Z,4.73
2018-08-28T01:46:07.729Z,4.73
2018-08-28T01:46:20.142Z,4.73
2018-08-28T01:46:32.583Z,5.45
2018-08-28T01:46:45.007Z,5.45
2018-08-28T01:46:57.425Z,5.45
2018-08-28T01:47:10.019Z,5.45
2018-08-28T01:47:22.459Z,5.45
2018-08-28T01:47:34.886Z,5.45
2018-08-28T01:47:47.289Z,5.45
2018-08-28T01:47:59.708Z,5.45
2018-08-28T01:48:12.131Z,5.45
2018-08-28T01:48:24.538Z,5.45
2018-08-28T01:48:37.071Z,5.45
2018-08-28T01:48:49.518Z,5.45
2018-08-28T01:49:01.939Z,5.45
2018-08-28T01:49:14.505Z,5.45
2018-08-28T01:49:26.914Z,5.45
2018-08-28T01:49:39.327Z,5.45
2018-08-28T01:49:51.732Z,5.45
2018-08-28T01:50:04.154Z,5.45
2018-08-28T01:50:16.559Z,5.45
2018-08-28T01:50:28.986Z,5.45
2018-08-28T01:50:41.397Z,5.45
2018-08-28T01:50:53.817Z,5.45
2018-08-28T01:51:06.228Z,5.45
2018-08-28T01:51:18.631Z,5.45
2018-08-28T01:51:31.032Z,5.45
2018-08-28T01:51:43.446Z,5.45
2018-08-28T01:51:55.847Z,5.45
2018-08-28T01:52:08.273Z,5.45
2018-08-28T01:52:20.680Z,5.45
2018-08-28T01:52:33.108Z,5.45
2018-08-28T01:52:45.572Z,5.45
2018-08-28T01:52:58.004Z,5.45
2018-08-28T01:53:10.436Z,5.45
2018-08-28T01:53:22.848Z,5.45
2018-08-28T01:53:35.257Z,5.45
2018-08-28T01:53:47.836Z,5.45
2018-08-28T01:54:00.310Z,5.45
2018-08-28T01:54:12.779Z,5.45
2018-08-28T01:54:25.240Z,5.45
2018-08-28T01:54:37.682Z,5.45
2018-08-28T01:54:50.111Z,5.45
2018-08-28T01:55:02.542Z,5.45
2018-08-28T01:55:14.973Z,5.45
2018-08-28T01:55:27.390Z,5.45
2018-08-28T01:55:39.822Z,5.45
2018-08-28T01:55:52.222Z,5.45
2018-08-28T01:56:04.659Z,5.45
2018-08-28T01:56:17.072Z,5.45
2018-08-28T01:56:29.624Z,5.47
2018-08-28T01:56:42.023Z,5.47
2018-08-28T01:56:54.414Z,5.47
2018-08-28T01:57:06.844Z,5.47
2018-08-28T01:57:19.240Z,5.47
2018-08-28T01:57:31.644Z,5.47
2018-08-28T01:57:44.063Z,5.47
2018-08-28T01:57:56.466Z,5.47
2018-08-28T01:58:08.884Z,5.47
2018-08-28T01:58:21.309Z,5.47
2018-08-28T01:58:33.721Z,5.47
2018-08-28T01:58:46.194Z,5.47
2018-08-28T01:58:58.615Z,5.47
2018-08-28T01:59:11.045Z,5.47
2018-08-28T01:59:23.479Z,5.47
2018-08-28T01:59:35.921Z,5.47
2018-08-28T01:59:48.341Z,5.47
2018-08-28T02:00:00.738Z,5.47
2018-08-28T02:00:13.217Z,5.47
2018-08-28T02:00:25.649Z,5.47
2018-08-28T02:00:38.091Z,5.47
2018-08-28T02:00:50.523Z,5.47
2018-08-28T02:01:02.963Z,5.47
2018-08-28T02:01:15.555Z,5.47
2018-08-28T02:01:27.992Z,5.47
2018-08-28T02:01:40.435Z,5.47
2018-08-28T02:01:52.864Z,5.47
2018-08-28T02:02:05.340Z,5.47
2018-08-28T02:02:17.773Z,5.47
2018-08-28T02:02:30.214Z,5.47
2018-08-28T02:02:42.614Z,5.47
2018-08-28T02:02:55.279Z,5.47
2018-08-28T02:03:07.703Z,5.47
2018-08-28T02:03:20.114Z,5.47
2018-08-28T02:03:32.542Z,5.47
2018-08-28T02:03:44.983Z,5.47
2018-08-28T02:03:57.406Z,5.47
2018-08-28T02:04:09.818Z,5.47
2018-08-28T02:04:22.247Z,5.47
2018-08-28T02:04:34.705Z,5.47
2018-08-28T02:04:47.170Z,5.47
2018-08-28T02:04:59.592Z,5.47
2018-08-28T02:05:12.019Z,5.47
2018-08-28T02:05:24.519Z,5.47
2018-08-28T02:05:36.947Z,5.47
2018-08-28T02:05:49.365Z,5.47
2018-08-28T02:06:01.775Z,5.47
2018-08-28T02:06:14.174Z,5.47
2018-08-28T02:06:26.611Z,5.47
2018-08-28T02:06:39.025Z,5.75
2018-08-28T02:06:51.454Z,5.75
2018-08-28T02:07:03.901Z,5.75
2018-08-28T02:07:16.336Z,5.75
2018-08-28T02:07:28.758Z,5.75
2018-08-28T02:07:41.166Z,5.75
2018-08-28T02:07:53.576Z,5.75
2018-08-28T02:08:06.261Z,5.75
2018-08-28T02:08:18.680Z,5.75
2018-08-28T02:08:31.097Z,5.75
2018-08-28T02:08:43.502Z,5.75
2018-08-28T02:08:55.902Z,5.75
2018-08-28T02:09:08.317Z,5.75
2018-08-28T02:09:20.752Z,5.75
2018-08-28T02:09:33.223Z,5.75
2018-08-28T02:09:45.635Z,5.75
2018-08-28T02:09:58.053Z,5.75
2018-08-28T02:10:10.502Z,5.75
2018-08-28T02:10:22.913Z,5.75
2018-08-28T02:10:35.368Z,5.75
2018-08-28T02:10:47.804Z,5.75
2018-08-28T02:11:00.213Z,5.75
2018-08-28T02:11:12.635Z,5.75
2018-08-28T02:11:25.058Z,5.75
2018-08-28T02:11:37.498Z,5.75
2018-08-28T02:11:49.930Z,5.75
2018-08-28T02:12:02.340Z,5.75
2018-08-28T02:12:14.770Z,5.75
2018-08-28T02:12:27.235Z,5.75
2018-08-28T02:12:39.669Z,5.75
2018-08-28T02:12:52.093Z,5.75
2018-08-28T02:13:04.825Z,5.75
2018-08-28T02:13:18.372Z,5.75
2018-08-28T02:13:31.433Z,5.75
2018-08-28T02:13:43.864Z,5.75
2018-08-28T02:13:56.351Z,5.75
2018-08-28T02:14:08.742Z,5.75
2018-08-28T02:14:21.152Z,5.75
2018-08-28T02:14:33.596Z,5.75
2018-08-28T02:14:46.007Z,5.75
2018-08-28T02:14:58.426Z,5.75
2018-08-28T02:15:10.846Z,5.75
2018-08-28T02:15:23.369Z,5.75
2018-08-28T02:15:35.796Z,5.75
2018-08-28T02:15:48.216Z,5.75
2018-08-28T02:16:00.609Z,5.75
2018-08-28T02:16:13.024Z,5.75
2018-08-28T02:16:25.464Z,5.75
2018-08-28T02:16:37.872Z,5.81
2018-08-28T02:16:50.290Z,5.81
2018-08-28T02:17:02.724Z,5.81
2018-08-28T02:17:15.162Z,5.81
2018-08-28T02:17:27.590Z,5.81
2018-08-28T02:17:40.017Z,5.81
2018-08-28T02:17:52.425Z,5.81
2018-08-28T02:18:05.045Z,5.81
2018-08-28T02:18:17.622Z,5.81
2018-08-28T02:18:30.029Z,5.81
2018-08-28T02:18:42.445Z,5.81
2018-08-28T02:18:55.039Z,5.81
2018-08-28T02:19:07.460Z,5.81
2018-08-28T02:19:19.941Z,5.81
2018-08-28T02:19:32.389Z,5.81
2018-08-28T02:19:44.812Z,5.81
2018-08-28T02:19:57.213Z,5.81
2018-08-28T02:20:09.626Z,5.81
2018-08-28T02:20:22.103Z,5.81
2018-08-28T02:20:34.499Z,5.81
2018-08-28T02:20:46.906Z,5.81
2018-08-28T02:20:59.343Z,5.81
2018-08-28T02:21:11.755Z,5.81
2018-08-28T02:21:24.255Z,5.81
2018-08-28T02:21:36.664Z,5.81
2018-08-28T02:21:49.085Z,5.81
2018-08-28T02:22:01.496Z,5.81
2018-08-28T02:22:13.921Z,5.81
2018-08-28T02:22:26.319Z,5.81
2018-08-28T02:22:38.893Z,5.81
2018-08-28T02:22:51.303Z,5.81
2018-08-28T02:23:03.711Z,5.81
2018-08-28T02:23:16.323Z,5.81
2018-08-28T02:23:28.727Z,5.81
2018-08-28T02:23:41.526Z,5.81
2018-08-28T02:23:53.945Z,5.81
2018-08-28T02:24:06.461Z,5.81
2018-08-28T02:24:18.889Z,5.81
2018-08-28T02:24:31.405Z,5.81
2018-08-28T02:24:43.829Z,5.81
2018-08-28T02:24:56.229Z,5.81
2018-08-28T02:25:08.763Z,5.81
2018-08-28T02:25:21.265Z,5.81
2018-08-28T02:25:33.714Z,5.81
2018-08-28T02:25:46.131Z,5.81
2018-08-28T02:25:58.535Z,5.81
2018-08-28T02:26:10.922Z,5.81
2018-08-28T02:26:23.331Z,5.81
2018-08-28T02:26:35.749Z,5.23
2018-08-28T02:26:48.171Z,5.23
2018-08-28T02:27:00.640Z,5.23
2018-08-28T02:27:13.106Z,5.23
2018-08-28T02:27:25.529Z,5.23
2018-08-28T02:27:37.942Z,5.23
2018-08-28T02:27:50.359Z,5.23
2018-08-28T02:28:02.801Z,5.23
2018-08-28T02:28:15.244Z,5.23
2018-08-28T02:28:28.000Z,5.23
2018-08-28T02:28:40.403Z,5.23
2018-08-28T02:28:52.853Z,5.23
2018-08-28T02:29:05.286Z,5.23
2018-08-28T02:29:17.694Z,5.23
2018-08-28T02:29:30.086Z,5.23
2018-08-28T02:29:42.491Z,5.23
2018-08-28T02:29:54.902Z,5.23
2018-08-28T02:30:07.342Z,5.23
2018-08-28T02:30:19.860Z,5.23
2018-08-28T02:30:32.334Z,5.23
2018-08-28T02:30:44.742Z,5.23
2018-08-28T02:30:57.146Z,5.23
2018-08-28T02:31:09.572Z,5.23
2018-08-28T02:31:22.015Z,5.23
2018-08-28T02:31:34.451Z,5.23
2018-08-28T02:31:46.892Z,5.23
2018-08-28T02:31:59.339Z,5.23
2018-08-28T02:32:11.942Z,5.23
2018-08-28T02:32:24.328Z,5.23
2018-08-28T02:32:36.889Z,5.23
2018-08-28T02:32:49.305Z,5.23
2018-08-28T02:33:01.777Z,5.23
2018-08-28T02:33:14.221Z,5.23
2018-08-28T02:33:26.845Z,5.23
2018-08-28T02:33:40.500Z,5.23
2018-08-28T02:33:53.718Z,5.23
2018-08-28T02:34:06.327Z,5.23
2018-08-28T02:34:18.734Z,5.23
2018-08-28T02:34:31.211Z,5.23
2018-08-28T02:34:43.653Z,5.23
2018-08-28T02:34:56.111Z,5.23
2018-08-28T02:35:08.535Z,5.23
2018-08-28T02:35:20.943Z,5.23
2018-08-28T02:35:33.391Z,5.23
2018-08-28T02:35:45.798Z,5.23
2018-08-28T02:35:58.215Z,5.23
2018-08-28T02:36:10.639Z,5.23
2018-08-28T02:36:23.080Z,5.23
2018-08-28T02:36:35.497Z,5.31
2018-08-28T02:36:47.922Z,5.31
2018-08-28T02:37:00.423Z,5.31
2018-08-28T02:37:12.818Z,5.31
2018-08-28T02:37:25.305Z,5.31
2018-08-28T02:37:37.722Z,5.31
2018-08-28T02:37:50.149Z,5.31
2018-08-28T02:38:02.571Z,5.31
2018-08-28T02:38:14.977Z,5.31
2018-08-28T02:38:27.380Z,5.31
2018-08-28T02:38:39.804Z,5.31
2018-08-28T02:38:52.226Z,5.31
2018-08-28T02:39:04.667Z,5.31
2018-08-28T02:39:17.085Z,5.31
2018-08-28T02:39:29.505Z,5.31
2018-08-28T02:39:41.921Z,5.31
2018-08-28T02:39:54.367Z,5.31
2018-08-28T02:40:06.815Z,5.31
2018-08-28T02:40:19.257Z,5.31
2018-08-28T02:40:31.778Z,5.31
2018-08-28T02:40:44.190Z,5.31
2018-08-28T02:40:56.612Z,5.31
2018-08-28T02:41:09.080Z,5.31
2018-08-28T02:41:21.489Z,5.31
2018-08-28T02:41:33.954Z,5.31
2018-08-28T02:41:46.407Z,5.31
2018-08-28T02:41:58.870Z,5.31
2018-08-28T02:42:11.302Z,5.31
2018-08-28T02:42:23.745Z,5.31
2018-08-28T02:42:36.203Z,5.31
2018-08-28T02:42:48.623Z,5.31
2018-08-28T02:43:01.048Z,5.31
2018-08-28T02:43:13.487Z,5.31
2018-08-28T02:43:25.891Z,5.31
2018-08-28T02:43:38.307Z,5.31
2018-08-28T02:43:50.713Z,5.31
2018-08-28T02:44:03.145Z,5.31
2018-08-28T02:44:15.584Z,5.31
2018-08-28T02:44:28.012Z,5.31
2018-08-28T02:44:40.456Z,5.31
2018-08-28T02:44:52.867Z,5.31
2018-08-28T02:45:05.339Z,5.31
2018-08-28T02:45:17.774Z,5.31
2018-08-28T02:45:30.372Z,5.31
2018-08-28T02:45:42.804Z,5.31
2018-08-28T02:45:55.304Z,5.31
2018-08-28T02:46:07.761Z,5.31
2018-08-28T02:46:20.198Z,5.31
2018-08-28T02:46:32.631Z,6.17
2018-08-28T02:46:45.074Z,6.17
2018-08-28T02:46:57.531Z,6.17
2018-08-28T02:47:09.962Z,6.17
2018-08-28T02:47:22.403Z,6.17
2018-08-28T02:47:35.038Z,6.17
2018-08-28T02:47:47.445Z,6.17
2018-08-28T02:47:59.873Z,6.17